createdAt,value
2022-12-08T00:20:03.351Z,4.25
2022-12-08T00:50:06.882Z,4.10
2022-12-08T01:20:10.980Z,5.00
2022-12-08T01:50:14.320Z,6.57
2022-12-08T02:20:17.254Z,6.53
2022-12-08T02:50:20.711Z,4.90
2022-12-08T03:20:24.576Z,10.10
2022-12-08T03:50:27.955Z,7.63
2022-12-08T04:20:31.558Z,7.63
2022-12-08T04:50:34.780Z,11.20
2022-12-08T05:20:38.098Z,18.83
2022-12-08T05:50:41.652Z,13.93
2022-12-08T06:20:45.072Z,11.57
2022-12-08T06:50:48.254Z,10.97
2022-12-08T07:20:51.993Z,11.33
2022-12-08T07:50:55.374Z,10.33
2022-12-08T08:21:06.733Z,18.13
2022-12-08T08:51:21.557Z,18.03
2022-12-08T09:21:24.547Z,15.43
2022-12-08T09:51:27.999Z,10.20
2022-12-08T10:21:31.681Z,12.30
2022-12-08T10:51:34.799Z,15.43
2022-12-08T11:21:38.826Z,14.57
2022-12-08T11:51:42.050Z,14.60
2022-12-08T12:21:44.961Z,16.37
2022-12-08T12:51:48.352Z,15.63
2022-12-08T13:21:51.236Z,13.63
2022-12-08T14:22:18.431Z,23.90
2022-12-08T14:52:21.343Z,20.20
2022-12-08T15:22:24.445Z,21.57
2022-12-08T15:52:27.426Z,21.27
2022-12-08T16:52:54.798Z,19.13
2022-12-08T17:22:57.743Z,20.40
2022-12-08T17:53:01.057Z,22.90
2022-12-08T18:23:04.244Z,25.03
2022-12-08T18:53:07.670Z,21.60
2022-12-08T19:23:12.035Z,17.53
2022-12-08T19:53:15.623Z,18.07
2022-12-08T20:23:19.085Z,15.77
2022-12-08T20:53:22.514Z,8.57
2022-12-08T21:23:25.815Z,6.43
2022-12-08T21:53:29.070Z,7.97
2022-12-08T22:23:32.668Z,8.00
2022-12-08T22:53:35.499Z,8.87
2022-12-08T23:23:39.720Z,10.77
2022-12-08T23:53:43.599Z,12.80
